createdAt,value
2019-06-20T03:00:27.511Z,85.40
2019-06-20T03:02:54.589Z,86.10
2019-06-20T03:05:21.590Z,85.80
2019-06-20T03:07:48.890Z,85.70
2019-06-20T03:10:15.967Z,85.50
2019-06-20T03:12:42.938Z,85.70
2019-06-20T03:15:09.949Z,85.60
2019-06-20T03:17:37.522Z,85.50
2019-06-20T03:20:04.526Z,85.90
2019-06-20T03:22:31.549Z,86.60
2019-06-20T03:24:58.644Z,86.30
2019-06-20T03:27:25.649Z,85.70
2019-06-20T03:29:52.635Z,85.70
2019-06-20T03:32:19.701Z,85.60
2019-06-20T03:34:46.693Z,85.60
2019-06-20T03:37:14.029Z,85.30
2019-06-20T03:39:41.301Z,85.40
2019-06-20T03:42:10.227Z,85.20
2019-06-20T03:44:37.216Z,85.40
2019-06-20T03:47:04.279Z,85.50
2019-06-20T03:49:31.327Z,85.50
2019-06-20T03:51:58.323Z,85.70
2019-06-20T03:54:25.369Z,85.70
2019-06-20T03:56:52.431Z,85.50
2019-06-20T03:59:19.445Z,85.10
2019-06-20T04:01:49.121Z,85.10
2019-06-20T04:04:15.277Z,84.90
2019-06-20T04:06:42.300Z,85.10
2019-06-20T04:09:10.307Z,85.10
2019-06-20T04:14:04.579Z,84.00
2019-06-20T04:16:31.668Z,84.70
2019-06-20T04:18:58.638Z,84.50
2019-06-20T04:21:25.622Z,84.50
2019-06-20T04:23:52.682Z,84.40
2019-06-20T04:26:19.681Z,84.80
2019-06-20T04:28:46.745Z,84.90
2019-06-20T04:31:13.793Z,84.80
2019-06-20T04:33:40.822Z,84.60
2019-06-20T04:36:07.948Z,84.60
2019-06-20T04:38:35.062Z,84.60
2019-06-20T04:41:02.075Z,84.70
2019-06-20T04:43:29.050Z,85.00
2019-06-20T04:46:03.910Z,85.00
2019-06-20T04:48:30.916Z,84.80
2019-06-20T04:50:57.898Z,85.00
2019-06-20T04:53:26.270Z,85.10
2019-06-20T04:55:53.299Z,84.80
2019-06-20T04:58:20.306Z,85.10
2019-06-20T05:00:47.405Z,84.80
2019-06-20T05:03:14.399Z,84.60
2019-06-20T05:05:41.388Z,84.30
2019-06-20T05:08:08.434Z,83.60
2019-06-20T05:10:35.703Z,83.40
2019-06-20T05:13:02.685Z,83.40
2019-06-20T05:15:30.052Z,83.40
2019-06-20T05:17:57.087Z,83.20
2019-06-20T05:20:24.149Z,82.90
2019-06-20T05:22:51.224Z,82.60
2019-06-20T05:25:18.229Z,82.50
2019-06-20T05:27:45.225Z,82.40
2019-06-20T05:30:12.294Z,82.00
2019-06-20T05:32:39.371Z,81.50
2019-06-20T05:35:09.086Z,81.70
2019-06-20T05:37:36.120Z,81.40
2019-06-20T05:40:06.129Z,81.60
2019-06-20T05:42:33.188Z,80.70
